sensor_id;sensor_type;location;lat;lon;timestamp;pressure;altitude;pressure_sealevel;temperature;humidity
12666;BME280;58531;59.050;17.416;2023-03-22T00:01:51;100096.13;;;1.70;100.00
12666;BME280;58531;59.050;17.416;2023-03-22T00:04:19;100085.22;;;1.68;100.00
12666;BME280;58531;59.050;17.416;2023-03-22T00:06:48;100087.81;;;1.71;100.00
12666;BME280;58531;59.050;17.416;2023-03-22T00:09:16;100078.41;;;1.74;100.00
12666;BME280;58531;59.050;17.416;2023-03-22T00:11:43;100074.66;;;1.75;100.00
12666;BME280;58531;59.050;17.416;2023-03-22T00:14:10;100061.13;;;1.73;100.00
12666;BME280;58531;59.050;17.416;2023-03-22T00:16:37;100057.75;;;1.72;100.00
12666;BME280;58531;59.050;17.416;2023-03-22T00:19:04;100056.59;;;1.77;100.00
12666;BME280;58531;59.050;17.416;2023-03-22T00:21:32;100053.25;;;1.73;100.00
12666;BME280;58531;59.050;17.416;2023-03-22T00:24:00;100043.44;;;1.77;100.00
12666;BME280;58531;59.050;17.416;2023-03-22T00:26:27;100038.47;;;1.82;100.00
12666;BME280;58531;59.050;17.416;2023-03-22T00:28:54;100031.72;;;1.81;100.00
12666;BME280;58531;59.050;17.416;2023-03-22T00:31:21;100019.66;;;1.84;100.00
12666;BME280;58531;59.050;17.416;2023-03-22T00:33:48;100015.88;;;1.85;100.00
12666;BME280;58531;59.050;17.416;2023-03-22T00:36:15;100020.41;;;1.84;100.00
12666;BME280;58531;59.050;17.416;2023-03-22T00:38:42;100006.50;;;1.84;100.00
12666;BME280;58531;59.050;17.416;2023-03-22T00:41:12;100006.13;;;1.85;100.00
12666;BME280;58531;59.050;17.416;2023-03-22T00:43:40;100001.63;;;1.82;100.00
12666;BME280;58531;59.050;17.416;2023-03-22T00:46:07;100003.88;;;1.84;100.00
12666;BME280;58531;59.050;17.416;2023-03-22T00:48:35;99994.47;;;1.83;100.00
12666;BME280;58531;59.050;17.416;2023-03-22T00:51:02;99990.31;;;1.85;100.00
12666;BME280;58531;59.050;17.416;2023-03-22T00:53:30;99978.31;;;1.81;100.00
12666;BME280;58531;59.050;17.416;2023-03-22T00:55:57;99975.25;;;1.86;100.00
12666;BME280;58531;59.050;17.416;2023-03-22T00:58:25;99972.28;;;1.84;100.00
12666;BME280;58531;59.050;17.416;2023-03-22T01:00:53;99956.13;;;1.82;100.00
12666;BME280;58531;59.050;17.416;2023-03-22T01:03:20;99961.00;;;1.83;100.00
12666;BME280;58531;59.050;17.416;2023-03-22T01:05:47;99947.81;;;1.87;100.00
12666;BME280;58531;59.050;17.416;2023-03-22T01:08:15;99945.94;;;1.87;100.00
12666;BME280;58531;59.050;17.416;2023-03-22T01:10:43;99942.16;;;1.88;100.00
12666;BME280;58531;59.050;17.416;2023-03-22T01:13:10;99933.84;;;1.90;100.00
12666;BME280;58531;59.050;17.416;2023-03-22T01:15:38;99930.84;;;1.91;100.00
12666;BME280;58531;59.050;17.416;2023-03-22T01:18:06;99935.41;;;1.87;100.00
12666;BME280;58531;59.050;17.416;2023-03-22T01:20:34;99927.09;;;1.89;100.00
12666;BME280;58531;59.050;17.416;2023-03-22T01:23:01;99924.47;;;1.89;100.00
12666;BME280;58531;59.050;17.416;2023-03-22T01:25:28;99921.09;;;1.88;100.00
12666;BME280;58531;59.050;17.416;2023-03-22T01:27:55;99918.47;;;1.88;100.00
12666;BME280;58531;59.050;17.416;2023-03-22T01:30:21;99911.31;;;1.89;100.00
12666;BME280;58531;59.050;17.416;2023-03-22T01:32:50;99905.31;;;1.88;100.00
12666;BME280;58531;59.050;17.416;2023-03-22T01:35:16;99899.28;;;1.88;100.00
12666;BME280;58531;59.050;17.416;2023-03-22T01:37:43;99895.84;;;1.91;100.00
12666;BME280;58531;59.050;17.416;2023-03-22T01:40:12;99884.19;;;1.92;100.00
12666;BME280;58531;59.050;17.416;2023-03-22T01:42:40;99881.56;;;1.92;100.00
12666;BME280;58531;59.050;17.416;2023-03-22T01:45:38;99874.00;;;1.94;100.00
12666;BME280;58531;59.050;17.416;2023-03-22T01:48:11;99869.44;;;1.98;100.00
12666;BME280;58531;59.050;17.416;2023-03-22T01:50:44;99870.56;;;2.00;100.00
12666;BME280;58531;59.050;17.416;2023-03-22T01:53:13;99856.69;;;1.96;100.00
12666;BME280;58531;59.050;17.416;2023-03-22T01:55:44;99864.53;;;2.00;100.00
12666;BME280;58531;59.050;17.416;2023-03-22T01:58:12;99855.50;;;2.01;100.00
12666;BME280;58531;59.050;17.416;2023-03-22T02:00:42;99847.94;;;2.03;100.00
12666;BME280;58531;59.050;17.416;2023-03-22T02:03:12;99848.38;;;2.01;100.00
12666;BME280;58531;59.050;17.416;2023-03-22T02:05:41;99838.13;;;2.07;100.00
12666;BME280;58531;59.050;17.416;2023-03-22T02:08:09;99832.06;;;2.10;100.00
12666;BME280;58531;59.050;17.416;2023-03-22T02:10:39;99830.50;;;2.12;100.00
12666;BME280;58531;59.050;17.416;2023-03-22T02:13:36;99820.75;;;2.13;100.00
12666;BME280;58531;59.050;17.416;2023-03-22T02:16:17;99814.69;;;2.16;100.00
12666;BME280;58531;59.050;17.416;2023-03-22T02:18:58;99808.31;;;2.13;100.00
12666;BME280;58531;59.050;17.416;2023-03-22T02:22:06;99798.13;;;2.15;100.00
12666;BME280;58531;59.050;17.416;2023-03-22T02:24:57;99796.94;;;2.20;100.00
12666;BME280;58531;59.050;17.416;2023-03-22T02:27:58;99786.75;;;2.22;100.00
12666;BME280;58531;59.050;17.416;2023-03-22T02:30:54;99783.72;;;2.23;100.00
12666;BME280;58531;59.050;17.416;2023-03-22T02:33:40;99771.66;;;2.26;100.00
12666;BME280;58531;59.050;17.416;2023-03-22T02:36:31;99770.09;;;2.28;100.00
12666;BME280;58531;59.050;17.416;2023-03-22T02:39:20;99770.78;;;2.32;100.00
12666;BME280;58531;59.050;17.416;2023-03-22T02:42:05;99763.97;;;2.34;100.00
12666;BME280;58531;59.050;17.416;2023-03-22T02:44:40;99763.16;;;2.37;100.00
12666;BME280;58531;59.050;17.416;2023-03-22T02:47:15;99757.16;;;2.37;100.00
12666;BME280;58531;59.050;17.416;2023-03-22T02:49:51;99762.34;;;2.44;100.00
12666;BME280;58531;59.050;17.416;2023-03-22T02:52:26;99752.53;;;2.44;100.00
12666;BME280;58531;59.050;17.416;2023-03-22T02:55:03;99750.59;;;2.48;100.00
12666;BME280;58531;59.050;17.416;2023-03-22T02:57:35;99748.28;;;2.50;100.00
12666;BME280;58531;59.050;17.416;2023-03-22T03:00:05;99746.34;;;2.54;100.00
12666;BME280;58531;59.050;17.416;2023-03-22T03:02:35;99745.88;;;2.59;100.00
12666;BME280;58531;59.050;17.416;2023-03-22T03:05:04;99748.53;;;2.59;100.00
12666;BME280;58531;59.050;17.416;2023-03-22T03:07:33;99740.88;;;2.65;100.00
12666;BME280;58531;59.050;17.416;2023-03-22T03:10:03;99736.41;;;2.62;100.00
12666;BME280;58531;59.050;17.416;2023-03-22T03:12:30;99733.41;;;2.63;100.00
12666;BME280;58531;59.050;17.416;2023-03-22T03:14:57;99731.09;;;2.65;100.00
12666;BME280;58531;59.050;17.416;2023-03-22T03:17:37;99731.03;;;2.69;100.00
12666;BME280;58531;59.050;17.416;2023-03-22T03:20:19;99727.31;;;2.66;100.00
12666;BME280;58531;59.050;17.416;2023-03-22T03:22:55;99723.53;;;2.67;100.00
12666;BME280;58531;59.050;17.416;2023-03-22T03:25:32;99721.25;;;2.69;100.00
12666;BME280;58531;59.050;17.416;2023-03-22T03:28:12;99720.50;;;2.69;100.00
12666;BME280;58531;59.050;17.416;2023-03-22T03:30:46;99705.78;;;2.71;100.00
12666;BME280;58531;59.050;17.416;2023-03-22T03:33:16;99711.38;;;2.73;100.00
12666;BME280;58531;59.050;17.416;2023-03-22T03:35:49;99704.63;;;2.72;100.00
12666;BME280;58531;59.050;17.416;2023-03-22T03:38:19;99697.06;;;2.74;100.00
12666;BME280;58531;59.050;17.416;2023-03-22T03:40:53;99692.88;;;2.77;100.00
12666;BME280;58531;59.050;17.416;2023-03-22T03:43:22;99682.72;;;2.75;100.00
12666;BME280;58531;59.050;17.416;2023-03-22T03:45:50;99682.41;;;2.73;100.00
12666;BME280;58531;59.050;17.416;2023-03-22T03:48:19;99675.28;;;2.70;100.00
12666;BME280;58531;59.050;17.416;2023-03-22T03:50:49;99670.72;;;2.74;100.00
12666;BME280;58531;59.050;17.416;2023-03-22T03:53:17;99677.50;;;2.72;100.00
12666;BME280;58531;59.050;17.416;2023-03-22T03:55:44;99666.16;;;2.75;100.00
12666;BME280;58531;59.050;17.416;2023-03-22T03:58:13;99669.91;;;2.77;100.00
12666;BME280;58531;59.050;17.416;2023-03-22T04:00:40;99663.19;;;2.73;100.00
12666;BME280;58531;59.050;17.416;2023-03-22T04:03:08;99665.44;;;2.74;100.00
12666;BME280;58531;59.050;17.416;2023-03-22T04:05:35;99665.44;;;2.74;100.00
12666;BME280;58531;59.050;17.416;2023-03-22T04:08:03;99662.38;;;2.76;100.00
12666;BME280;58531;59.050;17.416;2023-03-22T04:10:30;99653.28;;;2.80;100.00
12666;BME280;58531;59.050;17.416;2023-03-22T04:12:57;99654.00;;;2.81;100.00
12666;BME280;58531;59.050;17.416;2023-03-22T04:15:25;99648.31;;;2.82;100.00
12666;BME280;58531;59.050;17.416;2023-03-22T04:17:52;99642.66;;;2.84;100.00
12666;BME280;58531;59.050;17.416;2023-03-22T04:20:19;99640.41;;;2.82;100.00
12666;BME280;58531;59.050;17.416;2023-03-22T04:22:46;99645.03;;;2.78;100.00
12666;BME280;58531;59.050;17.416;2023-03-22T04:25:14;99642.31;;;2.82;100.00
12666;BME280;58531;59.050;17.416;2023-03-22T04:27:44;99633.63;;;2.81;100.00
12666;BME280;58531;59.050;17.416;2023-03-22T04:30:15;99641.88;;;2.83;100.00
12666;BME280;58531;59.050;17.416;2023-03-22T04:32:49;99643.38;;;2.84;100.00
12666;BME280;58531;59.050;17.416;2023-03-22T04:35:17;99625.34;;;2.83;100.00
12666;BME280;58531;59.050;17.416;2023-03-22T04:37:44;99634.31;;;2.85;100.00
12666;BME280;58531;59.050;17.416;2023-03-22T04:40:14;99627.56;;;2.84;100.00
12666;BME280;58531;59.050;17.416;2023-03-22T04:42:42;99628.22;;;2.88;100.00
12666;BME280;58531;59.050;17.416;2023-03-22T04:45:10;99625.94;;;2.90;100.00
12666;BME280;58531;59.050;17.416;2023-03-22T04:47:38;99624.09;;;2.87;100.00
12666;BME280;58531;59.050;17.416;2023-03-22T04:50:07;99622.16;;;2.91;100.00
12666;BME280;58531;59.050;17.416;2023-03-22T04:52:34;99617.28;;;2.90;100.00
12666;BME280;58531;59.050;17.416;2023-03-22T04:55:01;99615.34;;;2.94;100.00
12666;BME280;58531;59.050;17.416;2023-03-22T04:57:29;99608.44;;;3.00;100.00
12666;BME280;58531;59.050;17.416;2023-03-22T04:59:56;99602.75;;;3.01;100.00
12666;BME280;58531;59.050;17.416;2023-03-22T05:02:23;99599.75;;;2.99;100.00
12666;BME280;58531;59.050;17.416;2023-03-22T05:04:50;99590.66;;;3.04;100.00
12666;BME280;58531;59.050;17.416;2023-03-22T05:07:19;99593.28;;;3.04;100.00
12666;BME280;58531;59.050;17.416;2023-03-22T05:09:47;99590.97;;;3.06;100.00
12666;BME280;58531;59.050;17.416;2023-03-22T05:12:14;99583.31;;;3.11;100.00
12666;BME280;58531;59.050;17.416;2023-03-22T05:14:41;99585.97;;;3.11;100.00
12666;BME280;58531;59.050;17.416;2023-03-22T05:17:07;99585.47;;;3.16;100.00
12666;BME280;58531;59.050;17.416;2023-03-22T05:19:35;99582.34;;;3.21;100.00
12666;BME280;58531;59.050;17.416;2023-03-22T05:22:02;99583.84;;;3.22;100.00
12666;BME280;58531;59.050;17.416;2023-03-22T05:24:31;99586.00;;;3.27;100.00
12666;BME280;58531;59.050;17.416;2023-03-22T05:27:00;99577.31;;;3.27;100.00
12666;BME280;58531;59.050;17.416;2023-03-22T05:29:28;99570.00;;;3.34;100.00
12666;BME280;58531;59.050;17.416;2023-03-22T05:32:01;99568.50;;;3.33;100.00
12666;BME280;58531;59.050;17.416;2023-03-22T05:34:28;99572.28;;;3.32;100.00
12666;BME280;58531;59.050;17.416;2023-03-22T05:37:01;99565.47;;;3.35;100.00
12666;BME280;58531;59.050;17.416;2023-03-22T05:39:30;99562.41;;;3.36;100.00
12666;BME280;58531;59.050;17.416;2023-03-22T05:41:57;99550.97;;;3.43;100.00
12666;BME280;58531;59.050;17.416;2023-03-22T05:44:24;99543.28;;;3.48;100.00
12666;BME280;58531;59.050;17.416;2023-03-22T05:46:51;99542.47;;;3.51;100.00
12666;BME280;58531;59.050;17.416;2023-03-22T05:49:18;99548.41;;;3.55;100.00
12666;BME280;58531;59.050;17.416;2023-03-22T05:51:45;99543.78;;;3.59;100.00
12666;BME280;58531;59.050;17.416;2023-03-22T05:54:12;99548.56;;;3.64;100.00
12666;BME280;58531;59.050;17.416;2023-03-22T05:56:41;99546.50;;;3.71;100.00
12666;BME280;58531;59.050;17.416;2023-03-22T05:59:09;99546.44;;;3.75;100.00
12666;BME280;58531;59.050;17.416;2023-03-22T06:01:36;99542.97;;;3.78;100.00
12666;BME280;58531;59.050;17.416;2023-03-22T06:07:19;99538.22;;;3.85;100.00
12666;BME280;58531;59.050;17.416;2023-03-22T06:09:46;99546.72;;;3.93;100.00
12666;BME280;58531;59.050;17.416;2023-03-22T06:12:22;99546.53;;;4.00;100.00
12666;BME280;58531;59.050;17.416;2023-03-22T06:14:52;99549.84;;;4.04;100.00
12666;BME280;58531;59.050;17.416;2023-03-22T06:17:19;99551.97;;;4.09;100.00
12666;BME280;58531;59.050;17.416;2023-03-22T06:19:46;99543.03;;;4.19;100.00
12666;BME280;58531;59.050;17.416;2023-03-22T06:22:13;99545.81;;;4.28;100.00
12666;BME280;58531;59.050;17.416;2023-03-22T06:24:40;99541.19;;;4.32;100.00
12666;BME280;58531;59.050;17.416;2023-03-22T06:27:08;99533.88;;;4.36;100.00
12666;BME280;58531;59.050;17.416;2023-03-22T06:29:36;99546.69;;;4.37;100.00
12666;BME280;58531;59.050;17.416;2023-03-22T06:32:03;99535.16;;;4.31;100.00
12666;BME280;58531;59.050;17.416;2023-03-22T06:34:31;99534.75;;;4.33;100.00
12666;BME280;58531;59.050;17.416;2023-03-22T06:36:58;99537.47;;;4.29;100.00
12666;BME280;58531;59.050;17.416;2023-03-22T06:39:26;99530.63;;;4.32;100.00
12666;BME280;58531;59.050;17.416;2023-03-22T06:41:53;99532.72;;;4.37;100.00
12666;BME280;58531;59.050;17.416;2023-03-22T06:44:21;99530.53;;;4.48;100.00
12666;BME280;58531;59.050;17.416;2023-03-22T06:46:52;99530.03;;;4.53;100.00
12666;BME280;58531;59.050;17.416;2023-03-22T06:49:20;99531.50;;;4.54;100.00
12666;BME280;58531;59.050;17.416;2023-03-22T06:51:48;99526.53;;;4.56;100.00
12666;BME280;58531;59.050;17.416;2023-03-22T06:54:15;99523.50;;;4.69;100.00
12666;BME280;58531;59.050;17.416;2023-03-22T06:56:42;99520.75;;;4.73;100.00
12666;BME280;58531;59.050;17.416;2023-03-22T06:59:09;99520.16;;;4.81;100.00
12666;BME280;58531;59.050;17.416;2023-03-22T07:01:36;99523.72;;;4.87;100.00
12666;BME280;58531;59.050;17.416;2023-03-22T07:04:04;99521.19;;;4.96;100.00
12666;BME280;58531;59.050;17.416;2023-03-22T07:06:31;99518.78;;;5.02;100.00
12666;BME280;58531;59.050;17.416;2023-03-22T07:08:58;99516.34;;;5.07;100.00
12666;BME280;58531;59.050;17.416;2023-03-22T07:11:26;99513.28;;;5.09;100.00
12666;BME280;58531;59.050;17.416;2023-03-22T07:13:53;99511.34;;;5.22;100.00
12666;BME280;58531;59.050;17.416;2023-03-22T07:16:21;99515.69;;;5.28;100.00
12666;BME280;58531;59.050;17.416;2023-03-22T07:18:48;99507.63;;;5.32;100.00
12666;BME280;58531;59.050;17.416;2023-03-22T07:21:17;99511.34;;;5.34;100.00
12666;BME280;58531;59.050;17.416;2023-03-22T07:23:43;99520.47;;;5.33;100.00
12666;BME280;58531;59.050;17.416;2023-03-22T07:26:10;99507.84;;;5.37;100.00
12666;BME280;58531;59.050;17.416;2023-03-22T07:28:38;99512.53;;;5.33;100.00
12666;BME280;58531;59.050;17.416;2023-03-22T07:31:07;99498.13;;;5.34;100.00
12666;BME280;58531;59.050;17.416;2023-03-22T07:33:36;99499.16;;;5.37;100.00
12666;BME280;58531;59.050;17.416;2023-03-22T07:36:04;99497.19;;;5.28;100.00
12666;BME280;58531;59.050;17.416;2023-03-22T07:38:34;99488.88;;;5.39;100.00
12666;BME280;58531;59.050;17.416;2023-03-22T07:41:01;99489.41;;;5.46;100.00
12666;BME280;58531;59.050;17.416;2023-03-22T07:43:28;99490.66;;;5.54;100.00
12666;BME280;58531;59.050;17.416;2023-03-22T07:45:55;99485.25;;;5.58;100.00
12666;BME280;58531;59.050;17.416;2023-03-22T07:48:22;99486.94;;;5.64;100.00
12666;BME280;58531;59.050;17.416;2023-03-22T07:50:53;99474.31;;;5.68;100.00
12666;BME280;58531;59.050;17.416;2023-03-22T07:53:20;99492.84;;;5.68;100.00
12666;BME280;58531;59.050;17.416;2023-03-22T07:55:49;99486.78;;;5.68;100.00
12666;BME280;58531;59.050;17.416;2023-03-22T07:58:16;99494.50;;;5.75;100.00
12666;BME280;58531;59.050;17.416;2023-03-22T08:00:43;99484.16;;;5.80;100.00
12666;BME280;58531;59.050;17.416;2023-03-22T08:03:11;99483.34;;;5.92;100.00
12666;BME280;58531;59.050;17.416;2023-03-22T08:05:39;99489.28;;;6.17;100.00
12666;BME280;58531;59.050;17.416;2023-03-22T08:08:07;99478.94;;;6.32;100.00
12666;BME280;58531;59.050;17.416;2023-03-22T08:10:35;99474.03;;;6.52;100.00
12666;BME280;58531;59.050;17.416;2023-03-22T08:13:05;99472.13;;;6.92;100.00
12666;BME280;58531;59.050;17.416;2023-03-22T08:15:33;99478.44;;;7.15;100.00
12666;BME280;58531;59.050;17.416;2023-03-22T08:18:02;99473.28;;;7.30;100.00
12666;BME280;58531;59.050;17.416;2023-03-22T08:20:29;99458.72;;;7.34;100.00
12666;BME280;58531;59.050;17.416;2023-03-22T08:22:57;99464.19;;;7.49;100.00
12666;BME280;58531;59.050;17.416;2023-03-22T08:25:24;99454.31;;;7.85;100.00
12666;BME280;58531;59.050;17.416;2023-03-22T08:27:50;99456.94;;;8.03;100.00
12666;BME280;58531;59.050;17.416;2023-03-22T08:30:19;99460.50;;;8.09;100.00
12666;BME280;58531;59.050;17.416;2023-03-22T08:32:46;99466.41;;;7.95;100.00
12666;BME280;58531;59.050;17.416;2023-03-22T08:35:13;99459.78;;;7.91;100.00
12666;BME280;58531;59.050;17.416;2023-03-22T08:37:41;99464.66;;;7.83;100.00
12666;BME280;58531;59.050;17.416;2023-03-22T08:40:08;99457.84;;;7.64;100.00
12666;BME280;58531;59.050;17.416;2023-03-22T08:42:36;99455.19;;;7.55;100.00
12666;BME280;58531;59.050;17.416;2023-03-22T08:45:03;99462.13;;;7.44;100.00
12666;BME280;58531;59.050;17.416;2023-03-22T08:47:31;99454.16;;;7.62;100.00
12666;BME280;58531;59.050;17.416;2023-03-22T08:49:58;99453.72;;;7.81;100.00
12666;BME280;58531;59.050;17.416;2023-03-22T08:52:25;99460.22;;;7.80;100.00
12666;BME280;58531;59.050;17.416;2023-03-22T08:54:52;99458.41;;;8.04;100.00
12666;BME280;58531;59.050;17.416;2023-03-22T08:57:20;99449.16;;;8.59;100.00
12666;BME280;58531;59.050;17.416;2023-03-22T08:59:48;99450.72;;;8.74;100.00
12666;BME280;58531;59.050;17.416;2023-03-22T09:02:16;99444.66;;;8.83;100.00
12666;BME280;58531;59.050;17.416;2023-03-22T09:04:45;99441.78;;;8.63;100.00
12666;BME280;58531;59.050;17.416;2023-03-22T09:07:12;99432.31;;;8.62;100.00
12666;BME280;58531;59.050;17.416;2023-03-22T09:09:39;99440.84;;;8.75;100.00
12666;BME280;58531;59.050;17.416;2023-03-22T09:12:06;99435.88;;;8.50;100.00
12666;BME280;58531;59.050;17.416;2023-03-22T09:14:35;99428.84;;;8.38;100.00
12666;BME280;58531;59.050;17.416;2023-03-22T09:17:01;99433.22;;;8.50;100.00
12666;BME280;58531;59.050;17.416;2023-03-22T09:19:28;99430.84;;;8.61;100.00
12666;BME280;58531;59.050;17.416;2023-03-22T09:21:57;99432.63;;;8.55;100.00
12666;BME280;58531;59.050;17.416;2023-03-22T09:24:24;99420.59;;;8.36;100.00
12666;BME280;58531;59.050;17.416;2023-03-22T09:26:51;99423.53;;;8.38;100.00
12666;BME280;58531;59.050;17.416;2023-03-22T09:29:18;99422.66;;;8.41;100.00
12666;BME280;58531;59.050;17.416;2023-03-22T09:31:46;99417.06;;;8.30;100.00
12666;BME280;58531;59.050;17.416;2023-03-22T09:34:14;99424.00;;;8.27;100.00
12666;BME280;58531;59.050;17.416;2023-03-22T09:36:41;99421.88;;;8.40;100.00
12666;BME280;58531;59.050;17.416;2023-03-22T09:39:09;99418.44;;;8.58;100.00
12666;BME280;58531;59.050;17.416;2023-03-22T09:41:38;99412.16;;;8.70;100.00
12666;BME280;58531;59.050;17.416;2023-03-22T09:44:11;99416.53;;;8.91;100.00
12666;BME280;58531;59.050;17.416;2023-03-22T09:46:42;99409.66;;;8.99;100.00
12666;BME280;58531;59.050;17.416;2023-03-22T09:49:14;99401.03;;;9.04;100.00
12666;BME280;58531;59.050;17.416;2023-03-22T09:51:46;99392.94;;;8.98;100.00
12666;BME280;58531;59.050;17.416;2023-03-22T09:54:17;99392.34;;;9.03;100.00
12666;BME280;58531;59.050;17.416;2023-03-22T09:56:48;99394.81;;;9.07;100.00
12666;BME280;58531;59.050;17.416;2023-03-22T09:59:22;99395.31;;;9.20;100.00
12666;BME280;58531;59.050;17.416;2023-03-22T10:01:55;99394.66;;;9.34;100.00
12666;BME280;58531;59.050;17.416;2023-03-22T10:04:42;99389.16;;;9.51;100.00
12666;BME280;58531;59.050;17.416;2023-03-22T10:07:20;99388.94;;;9.78;100.00
12666;BME280;58531;59.050;17.416;2023-03-22T10:10:00;99388.94;;;9.78;100.00
12666;BME280;58531;59.050;17.416;2023-03-22T10:12:33;99392.59;;;9.66;100.00
12666;BME280;58531;59.050;17.416;2023-03-22T10:15:07;99383.34;;;9.76;100.00
12666;BME280;58531;59.050;17.416;2023-03-22T10:17:38;99397.50;;;9.97;100.00
12666;BME280;58531;59.050;17.416;2023-03-22T10:20:20;99391.34;;;9.91;100.00
12666;BME280;58531;59.050;17.416;2023-03-22T10:22:50;99391.63;;;9.78;100.00
12666;BME280;58531;59.050;17.416;2023-03-22T10:25:22;99385.16;;;9.70;100.00
12666;BME280;58531;59.050;17.416;2023-03-22T10:27:50;99388.81;;;9.58;100.00
12666;BME280;58531;59.050;17.416;2023-03-22T10:30:20;99386.22;;;9.49;100.00
12666;BME280;58531;59.050;17.416;2023-03-22T10:32:50;99385.16;;;9.56;100.00
12666;BME280;58531;59.050;17.416;2023-03-22T10:35:18;99387.53;;;9.68;100.00
12666;BME280;58531;59.050;17.416;2023-03-22T10:37:47;99383.88;;;9.66;100.00
12666;BME280;58531;59.050;17.416;2023-03-22T10:40:18;99381.09;;;9.60;100.00
12666;BME280;58531;59.050;17.416;2023-03-22T10:42:52;99381.75;;;9.70;100.00
12666;BME280;58531;59.050;17.416;2023-03-22T10:45:20;99374.50;;;9.70;100.00
12666;BME280;58531;59.050;17.416;2023-03-22T10:47:53;99373.44;;;9.53;100.00
12666;BME280;58531;59.050;17.416;2023-03-22T10:50:26;99381.94;;;9.29;100.00
12666;BME280;58531;59.050;17.416;2023-03-22T10:53:00;99390.19;;;9.16;100.00
12666;BME280;58531;59.050;17.416;2023-03-22T10:55:29;99374.31;;;8.98;100.00
12666;BME280;58531;59.050;17.416;2023-03-22T10:58:07;99376.22;;;8.98;100.00
12666;BME280;58531;59.050;17.416;2023-03-22T11:00:36;99378.97;;;9.12;100.00
12666;BME280;58531;59.050;17.416;2023-03-22T11:03:04;99376.63;;;9.29;100.00
12666;BME280;58531;59.050;17.416;2023-03-22T11:05:31;99377.19;;;9.33;100.00
12666;BME280;58531;59.050;17.416;2023-03-22T11:08:01;99367.22;;;9.71;100.00
12666;BME280;58531;59.050;17.416;2023-03-22T11:10:29;99369.38;;;9.81;100.00
12666;BME280;58531;59.050;17.416;2023-03-22T11:13:15;99354.84;;;10.11;100.00
12666;BME280;58531;59.050;17.416;2023-03-22T11:15:51;99362.66;;;10.29;100.00
12666;BME280;58531;59.050;17.416;2023-03-22T11:18:19;99355.56;;;10.41;100.00
12666;BME280;58531;59.050;17.416;2023-03-22T11:20:55;99362.75;;;10.20;100.00
12666;BME280;58531;59.050;17.416;2023-03-22T11:23:24;99357.22;;;9.95;100.00
12666;BME280;58531;59.050;17.416;2023-03-22T11:25:54;99361.38;;;9.81;100.00
12666;BME280;58531;59.050;17.416;2023-03-22T11:28:33;99355.56;;;9.83;100.00
12666;BME280;58531;59.050;17.416;2023-03-22T11:31:04;99355.22;;;10.04;100.00
12666;BME280;58531;59.050;17.416;2023-03-22T11:33:31;99352.72;;;10.44;100.00
12666;BME280;58531;59.050;17.416;2023-03-22T11:36:00;99356.84;;;10.45;100.00
12666;BME280;58531;59.050;17.416;2023-03-22T11:38:30;99352.34;;;10.37;100.00
12666;BME280;58531;59.050;17.416;2023-03-22T11:41:02;99352.91;;;10.26;100.00
12666;BME280;58531;59.050;17.416;2023-03-22T11:43:33;99342.16;;;10.06;100.00
12666;BME280;58531;59.050;17.416;2023-03-22T11:46:01;99347.41;;;9.86;100.00
12666;BME280;58531;59.050;17.416;2023-03-22T11:48:31;99340.31;;;9.83;100.00
12666;BME280;58531;59.050;17.416;2023-03-22T11:51:05;99337.94;;;9.85;100.00
12666;BME280;58531;59.050;17.416;2023-03-22T11:53:35;99331.28;;;10.24;100.00
12666;BME280;58531;59.050;17.416;2023-03-22T11:56:05;99327.72;;;10.61;100.00
12666;BME280;58531;59.050;17.416;2023-03-22T11:58:54;99327.53;;;11.05;100.00
12666;BME280;58531;59.050;17.416;2023-03-22T12:01:31;99313.34;;;10.99;100.00
12666;BME280;58531;59.050;17.416;2023-03-22T12:04:00;99313.34;;;10.99;99.52
12666;BME280;58531;59.050;17.416;2023-03-22T12:06:32;99313.00;;;10.71;100.00
12666;BME280;58531;59.050;17.416;2023-03-22T12:09:03;99309.28;;;10.63;100.00
12666;BME280;58531;59.050;17.416;2023-03-22T12:11:33;99310.94;;;10.61;100.00
12666;BME280;58531;59.050;17.416;2023-03-22T12:14:05;99311.00;;;10.47;100.00
12666;BME280;58531;59.050;17.416;2023-03-22T12:16:43;99313.06;;;10.23;100.00
12666;BME280;58531;59.050;17.416;2023-03-22T12:19:19;99309.16;;;10.04;100.00
12666;BME280;58531;59.050;17.416;2023-03-22T12:21:49;99307.41;;;9.86;100.00
12666;BME280;58531;59.050;17.416;2023-03-22T12:24:24;99308.13;;;9.72;100.00
12666;BME280;58531;59.050;17.416;2023-03-22T12:26:55;99302.16;;;9.77;100.00
12666;BME280;58531;59.050;17.416;2023-03-22T12:29:26;99302.63;;;9.90;100.00
12666;BME280;58531;59.050;17.416;2023-03-22T12:31:58;99294.69;;;10.10;100.00
12666;BME280;58531;59.050;17.416;2023-03-22T12:34:34;99286.59;;;10.19;100.00
12666;BME280;58531;59.050;17.416;2023-03-22T12:37:04;99284.78;;;10.11;100.00
12666;BME280;58531;59.050;17.416;2023-03-22T12:39:36;99282.63;;;10.29;100.00
12666;BME280;58531;59.050;17.416;2023-03-22T12:42:12;99279.94;;;10.63;100.00
12666;BME280;58531;59.050;17.416;2023-03-22T12:44:45;99276.78;;;10.85;100.00
12666;BME280;58531;59.050;17.416;2023-03-22T12:47:17;99267.38;;;10.89;100.00
12666;BME280;58531;59.050;17.416;2023-03-22T12:49:53;99272.38;;;10.82;100.00
12666;BME280;58531;59.050;17.416;2023-03-22T12:52:25;99269.31;;;10.89;100.00
12666;BME280;58531;59.050;17.416;2023-03-22T12:54:57;99271.69;;;11.07;99.57
12666;BME280;58531;59.050;17.416;2023-03-22T12:57:27;99258.19;;;11.16;99.53
12666;BME280;58531;59.050;17.416;2023-03-22T12:59:57;99257.78;;;11.23;97.07
12666;BME280;58531;59.050;17.416;2023-03-22T13:02:28;99250.22;;;11.21;96.79
12666;BME280;58531;59.050;17.416;2023-03-22T13:04:58;99249.00;;;11.22;95.73
12666;BME280;58531;59.050;17.416;2023-03-22T13:07:50;99242.19;;;10.96;96.51